createdAt,value
2018-04-09T00:01:08.480Z,7.03
2018-04-09T00:03:36.599Z,9.80
2018-04-09T00:06:04.559Z,7.50
2018-04-09T00:08:31.498Z,7.33
2018-04-09T00:10:58.396Z,6.97
2018-04-09T00:13:26.891Z,7.70
2018-04-09T00:15:53.960Z,10.73
2018-04-09T00:18:21.029Z,7.70
2018-04-09T00:20:47.641Z,7.67
2018-04-09T00:23:15.653Z,6.90
2018-04-09T00:25:43.357Z,7.33
2018-04-09T00:28:11.256Z,7.00
2018-04-09T00:30:38.808Z,6.93
2018-04-09T00:33:05.665Z,7.60
2018-04-09T00:35:32.667Z,6.77
2018-04-09T00:37:59.304Z,7.70
2018-04-09T00:40:25.897Z,7.40
2018-04-09T00:42:53.138Z,7.00
2018-04-09T00:45:19.789Z,6.63
2018-04-09T00:47:46.629Z,6.40
2018-04-09T00:50:13.462Z,7.60
2018-04-09T00:52:40.098Z,7.00
2018-04-09T00:55:06.893Z,6.60
2018-04-09T00:57:33.494Z,7.67
2018-04-09T01:00:00.679Z,13.40
2018-04-09T01:02:28.493Z,7.30
2018-04-09T01:04:55.426Z,6.53
2018-04-09T01:07:22.014Z,6.70
2018-04-09T01:09:49.733Z,6.73
2018-04-09T01:12:16.392Z,7.93
2018-04-09T01:14:43.098Z,6.97
2018-04-09T01:17:09.678Z,7.63
2018-04-09T01:19:36.352Z,7.30
2018-04-09T01:22:02.945Z,7.00
2018-04-09T01:24:29.557Z,8.20
2018-04-09T01:26:56.240Z,6.90
2018-04-09T01:29:23.077Z,12.07
2018-04-09T01:31:49.663Z,7.87
2018-04-09T01:34:16.401Z,8.23
2018-04-09T01:36:43.034Z,8.37
2018-04-09T01:39:09.636Z,7.33
2018-04-09T01:41:36.227Z,6.93
2018-04-09T01:44:02.836Z,8.27
2018-04-09T01:46:29.519Z,6.30
2018-04-09T01:48:56.144Z,7.10
2018-04-09T01:51:22.771Z,6.43
2018-04-09T01:53:49.365Z,9.70
2018-04-09T01:56:16.002Z,7.13
2018-04-09T01:58:42.581Z,5.77
2018-04-09T02:01:09.273Z,11.10
2018-04-09T02:03:35.867Z,6.60
2018-04-09T02:06:02.504Z,6.43
2018-04-09T02:08:29.109Z,6.50
2018-04-09T02:10:55.734Z,6.70
2018-04-09T02:13:22.341Z,5.77
2018-04-09T02:15:48.959Z,5.97
2018-04-09T02:18:15.893Z,7.30
2018-04-09T02:20:42.518Z,6.80
2018-04-09T02:23:09.147Z,8.87
2018-04-09T02:25:35.762Z,7.20
2018-04-09T02:28:02.399Z,7.67
2018-04-09T02:30:28.985Z,6.93
2018-04-09T02:32:55.606Z,9.50
2018-04-09T02:35:22.211Z,7.43
2018-04-09T02:37:48.832Z,6.80
2018-04-09T02:40:15.513Z,6.93
2018-04-09T02:42:42.150Z,6.77
2018-04-09T02:45:08.729Z,7.70
2018-04-09T02:47:35.449Z,7.57
2018-04-09T02:50:02.009Z,7.20
2018-04-09T02:52:28.642Z,7.40
2018-04-09T02:54:55.263Z,7.60
2018-04-09T02:57:21.837Z,8.00
2018-04-09T02:59:48.465Z,7.37
2018-04-09T03:02:15.059Z,7.37
2018-04-09T03:04:41.687Z,6.90
2018-04-09T03:07:08.298Z,6.93
2018-04-09T03:09:34.939Z,7.03
2018-04-09T03:12:01.527Z,8.27
2018-04-09T03:14:28.147Z,7.80
2018-04-09T03:16:54.816Z,7.83
2018-04-09T03:19:21.423Z,7.10
2018-04-09T03:21:48.048Z,7.23
2018-04-09T03:24:15.524Z,8.00
2018-04-09T03:26:42.144Z,8.20
2018-04-09T03:29:08.734Z,9.40
2018-04-09T03:31:35.321Z,8.47
2018-04-09T03:34:01.907Z,9.57
2018-04-09T03:36:28.604Z,8.63
2018-04-09T03:38:55.213Z,8.80
2018-04-09T03:41:21.840Z,8.00
2018-04-09T03:43:48.473Z,8.33
2018-04-09T03:46:15.081Z,8.43
2018-04-09T03:48:41.690Z,8.33
2018-04-09T03:51:09.260Z,9.07
2018-04-09T03:53:35.897Z,10.30
2018-04-09T03:56:02.489Z,9.33
2018-04-09T03:58:29.159Z,9.20
2018-04-09T04:00:55.771Z,8.70
2018-04-09T04:03:22.431Z,8.67
2018-04-09T04:05:49.092Z,10.43
2018-04-09T04:08:15.739Z,10.17
2018-04-09T04:10:42.364Z,8.83
2018-04-09T04:13:08.977Z,8.37
2018-04-09T04:15:41.527Z,7.40
2018-04-09T04:18:13.853Z,9.00
2018-04-09T04:20:46.445Z,9.20
2018-04-09T04:23:13.052Z,24.33
2018-04-09T04:25:39.681Z,11.67
2018-04-09T04:28:06.318Z,9.23
2018-04-09T04:30:32.960Z,13.23
2018-04-09T04:32:59.611Z,17.43
2018-04-09T04:35:26.216Z,9.63
2018-04-09T04:37:52.857Z,10.53
2018-04-09T04:40:19.456Z,8.83
2018-04-09T04:42:46.107Z,8.57
2018-04-09T04:45:12.701Z,9.87
2018-04-09T04:47:39.317Z,18.43
2018-04-09T04:50:05.928Z,9.70
2018-04-09T04:52:32.526Z,8.37
2018-04-09T04:54:59.130Z,11.80
2018-04-09T04:57:25.723Z,9.23
2018-04-09T04:59:52.334Z,9.53
2018-04-09T05:02:18.920Z,8.77
2018-04-09T05:04:45.614Z,9.00
2018-04-09T05:07:12.197Z,15.80
2018-04-09T05:09:38.908Z,11.37
2018-04-09T05:12:05.506Z,9.23
2018-04-09T05:14:32.124Z,9.40
2018-04-09T05:16:58.752Z,10.07
2018-04-09T05:19:25.409Z,9.97
2018-04-09T05:21:52.030Z,9.37
2018-04-09T05:24:18.618Z,10.10
2018-04-09T05:26:45.226Z,8.77
2018-04-09T05:29:11.841Z,9.07
2018-04-09T05:31:38.467Z,9.37
2018-04-09T05:34:05.068Z,8.53
2018-04-09T05:36:31.693Z,9.03
2018-04-09T05:38:58.304Z,12.90
2018-04-09T05:41:25.192Z,12.17
2018-04-09T05:43:52.013Z,8.83
2018-04-09T05:46:18.675Z,12.30
2018-04-09T05:48:45.310Z,8.57
2018-04-09T05:51:11.914Z,9.10
2018-04-09T05:53:38.566Z,8.80
2018-04-09T05:56:05.558Z,9.37
2018-04-09T05:58:32.169Z,8.60
2018-04-09T06:00:58.899Z,13.30
2018-04-09T06:03:25.536Z,9.90
2018-04-09T06:05:52.138Z,12.80
2018-04-09T06:08:18.810Z,9.10
2018-04-09T06:10:45.490Z,15.07
2018-04-09T06:13:12.108Z,9.37
2018-04-09T06:15:38.764Z,8.47
2018-04-09T06:18:05.397Z,9.40
2018-04-09T06:20:32.013Z,8.80
2018-04-09T06:22:58.681Z,8.30
2018-04-09T06:25:25.316Z,10.27
2018-04-09T06:27:51.923Z,8.37
2018-04-09T06:30:18.560Z,13.50
2018-04-09T06:32:45.178Z,16.83
2018-04-09T06:35:11.864Z,23.77
2018-04-09T06:37:38.493Z,27.00
2018-04-09T06:40:05.137Z,27.47
2018-04-09T06:42:31.750Z,17.43
2018-04-09T06:44:58.387Z,16.43
2018-04-09T06:47:25.018Z,21.00
2018-04-09T06:49:51.659Z,13.00
2018-04-09T06:52:18.331Z,16.23
2018-04-09T06:54:44.978Z,12.50
2018-04-09T06:57:11.629Z,18.60
2018-04-09T06:59:38.220Z,9.63
2018-04-09T07:02:04.902Z,10.40
2018-04-09T07:04:31.565Z,10.00
2018-04-09T07:06:58.207Z,10.03
2018-04-09T07:09:24.845Z,10.93
2018-04-09T07:11:51.465Z,18.93
2018-04-09T07:14:18.167Z,9.90
2018-04-09T07:16:44.817Z,11.97
2018-04-09T07:19:11.399Z,9.87
2018-04-09T07:21:38.136Z,11.43
2018-04-09T07:24:04.741Z,8.43
2018-04-09T07:26:31.812Z,10.50
2018-04-09T07:28:58.432Z,10.20
2018-04-09T07:31:25.123Z,12.40
2018-04-09T07:33:51.749Z,12.20
2018-04-09T07:36:18.372Z,10.07
2018-04-09T07:38:45.013Z,10.47
2018-04-09T07:41:11.647Z,23.13
2018-04-09T07:43:38.266Z,12.37
2018-04-09T07:46:04.894Z,12.80
2018-04-09T07:48:31.573Z,11.80
2018-04-09T07:50:58.209Z,13.23
2018-04-09T07:53:24.828Z,12.37
2018-04-09T07:55:51.481Z,10.93
2018-04-09T07:58:18.180Z,14.60
2018-04-09T08:00:44.768Z,12.73
2018-04-09T08:03:11.396Z,10.00
2018-04-09T08:05:38.084Z,10.77
2018-04-09T08:08:04.761Z,15.60
2018-04-09T08:10:31.390Z,15.83
2018-04-09T08:12:58.004Z,9.73
2018-04-09T08:15:24.634Z,10.03
2018-04-09T08:17:51.258Z,10.10
2018-04-09T08:20:18.099Z,10.57
2018-04-09T08:22:44.744Z,10.60
2018-04-09T08:25:11.386Z,10.27
2018-04-09T08:27:37.982Z,11.27
2018-04-09T08:30:04.710Z,10.73
2018-04-09T08:32:31.469Z,11.00
2018-04-09T08:34:58.145Z,11.03
2018-04-09T08:37:24.734Z,10.50
2018-04-09T08:39:51.373Z,11.53
2018-04-09T08:42:18.111Z,9.80
2018-04-09T08:44:44.754Z,14.13
2018-04-09T08:47:11.482Z,8.20
2018-04-09T08:49:38.118Z,9.13
2018-04-09T08:52:04.781Z,9.00
2018-04-09T08:54:31.499Z,8.80
2018-04-09T08:56:58.605Z,12.43
2018-04-09T08:59:25.313Z,8.17
2018-04-09T09:01:52.027Z,10.53
2018-04-09T09:04:18.702Z,12.60
2018-04-09T09:06:45.334Z,7.30
2018-04-09T09:09:11.978Z,7.83
2018-04-09T09:11:38.568Z,9.10
2018-04-09T09:14:05.281Z,13.40
2018-04-09T09:16:31.882Z,6.80
2018-04-09T09:18:58.498Z,6.27
2018-04-09T09:21:25.155Z,7.50
2018-04-09T09:23:51.877Z,7.27
2018-04-09T09:26:18.652Z,7.67
2018-04-09T09:28:45.248Z,7.00
2018-04-09T09:31:11.963Z,7.70
2018-04-09T09:33:38.611Z,6.77
2018-04-09T09:36:05.402Z,6.87
2018-04-09T09:38:32.029Z,7.40
2018-04-09T09:40:58.680Z,7.87
2018-04-09T09:43:25.317Z,7.93
2018-04-09T09:45:51.917Z,8.90
2018-04-09T09:48:18.583Z,8.80
2018-04-09T09:50:45.281Z,8.73
2018-04-09T09:53:11.887Z,8.87
2018-04-09T09:55:38.559Z,9.43
2018-04-09T09:58:05.264Z,9.27
2018-04-09T10:00:37.517Z,9.47
2018-04-09T10:03:04.149Z,8.67
2018-04-09T10:05:30.773Z,7.70
2018-04-09T10:07:57.462Z,9.23
2018-04-09T10:10:24.059Z,8.03
2018-04-09T10:12:50.699Z,9.73
2018-04-09T10:15:17.351Z,8.60
2018-04-09T10:17:43.985Z,8.60
2018-04-09T10:20:10.593Z,9.10
2018-04-09T10:22:37.221Z,8.97
2018-04-09T10:25:03.845Z,9.30
2018-04-09T10:27:30.487Z,10.57
2018-04-09T10:29:57.137Z,9.67
2018-04-09T10:32:23.768Z,11.33
2018-04-09T10:34:50.383Z,12.43
2018-04-09T10:37:17.000Z,9.40
2018-04-09T10:39:43.589Z,9.23
2018-04-09T10:42:10.346Z,8.87
2018-04-09T10:44:37.000Z,8.60
2018-04-09T10:47:03.600Z,8.60
2018-04-09T10:49:30.221Z,12.03
2018-04-09T10:51:56.899Z,14.50
2018-04-09T10:54:23.551Z,7.90
2018-04-09T10:56:50.208Z,8.60
2018-04-09T10:59:16.845Z,9.60
2018-04-09T11:01:43.501Z,8.57
2018-04-09T11:04:10.241Z,9.20
2018-04-09T11:06:36.846Z,9.13
2018-04-09T11:09:03.622Z,10.33
2018-04-09T11:11:30.198Z,9.73
2018-04-09T11:13:57.538Z,9.43
2018-04-09T11:16:24.257Z,15.00
2018-04-09T11:18:50.891Z,13.53
2018-04-09T11:21:17.508Z,14.50
2018-04-09T11:23:44.164Z,13.93
2018-04-09T11:26:10.838Z,11.33
2018-04-09T11:28:37.522Z,11.00
2018-04-09T11:31:04.111Z,17.97
2018-04-09T11:33:30.787Z,11.57
2018-04-09T11:35:57.500Z,11.07
2018-04-09T11:38:24.211Z,10.47
2018-04-09T11:40:50.832Z,8.83
2018-04-09T11:43:17.562Z,6.97
2018-04-09T11:45:44.227Z,6.53
2018-04-09T11:48:10.841Z,14.73
2018-04-09T11:50:37.479Z,7.43
2018-04-09T11:53:04.096Z,7.23
2018-04-09T11:55:30.835Z,8.63
2018-04-09T12:00:23.349Z,6.23
2018-04-09T12:02:50.013Z,6.27
2018-04-09T12:05:16.595Z,6.30
2018-04-09T12:07:43.279Z,9.03
2018-04-09T12:10:10.223Z,6.23
2018-04-09T12:12:38.204Z,6.90
2018-04-09T12:15:04.796Z,6.83
2018-04-09T12:17:31.417Z,7.27
2018-04-09T12:19:58.086Z,6.80
2018-04-09T12:22:24.704Z,7.20
2018-04-09T12:24:51.297Z,6.20
2018-04-09T12:27:17.960Z,21.70
2018-04-09T12:29:44.578Z,8.60
2018-04-09T12:32:11.247Z,8.97
2018-04-09T12:34:37.895Z,8.20
2018-04-09T12:37:04.491Z,6.00
2018-04-09T12:39:31.101Z,5.83
2018-04-09T12:41:57.722Z,6.00
2018-04-09T12:44:24.471Z,8.43
2018-04-09T12:46:51.103Z,7.20
2018-04-09T12:49:18.455Z,6.70
2018-04-09T12:51:45.067Z,5.93
2018-04-09T12:54:11.726Z,6.00
2018-04-09T12:56:38.355Z,7.00
2018-04-09T12:59:04.990Z,5.63
2018-04-09T13:01:31.714Z,4.87
2018-04-09T13:03:58.318Z,6.07
2018-04-09T13:06:24.936Z,5.83
2018-04-09T13:08:51.552Z,5.00
2018-04-09T13:11:18.216Z,5.53
2018-04-09T13:13:45.046Z,4.73
2018-04-09T13:16:11.720Z,4.80
2018-04-09T13:18:38.308Z,5.10
2018-04-09T13:21:05.706Z,5.30
2018-04-09T13:23:32.295Z,5.70
2018-04-09T13:25:58.936Z,4.80
2018-04-09T13:28:25.494Z,4.60
2018-04-09T13:30:52.169Z,12.93
2018-04-09T13:33:18.762Z,7.90
2018-04-09T13:35:45.452Z,4.80
2018-04-09T13:38:11.997Z,4.70
2018-04-09T13:40:38.625Z,4.77
2018-04-09T13:43:05.291Z,5.17
2018-04-09T13:45:32.038Z,10.17
2018-04-09T13:47:58.745Z,4.10
2018-04-09T13:50:25.390Z,5.43
2018-04-09T13:52:52.057Z,5.03
2018-04-09T13:55:18.989Z,10.30
2018-04-09T13:57:46.543Z,11.27
2018-04-09T14:00:13.928Z,4.57
2018-04-09T14:02:40.544Z,4.20
2018-04-09T14:05:07.168Z,8.70
2018-04-09T14:07:33.854Z,6.30
2018-04-09T14:10:00.493Z,4.20
2018-04-09T14:12:27.105Z,6.20
2018-04-09T14:14:53.741Z,6.47
2018-04-09T14:17:21.209Z,3.50
2018-04-09T14:19:48.013Z,4.17
2018-04-09T14:22:14.883Z,3.77
2018-04-09T14:24:41.742Z,9.43
2018-04-09T14:27:08.326Z,4.30
2018-04-09T14:29:38.445Z,16.30
2018-04-09T14:32:06.302Z,8.13
2018-04-09T14:34:33.150Z,4.63
2018-04-09T14:37:00.977Z,4.60
2018-04-09T14:39:28.797Z,5.03
2018-04-09T14:42:07.295Z,6.80
2018-04-09T14:44:34.051Z,5.00
2018-04-09T14:47:02.558Z,4.57
2018-04-09T14:49:29.415Z,5.87
2018-04-09T14:51:57.503Z,4.83
2018-04-09T14:54:26.872Z,10.20
2018-04-09T14:56:53.494Z,5.33
2018-04-09T14:59:29.376Z,4.07
2018-04-09T15:01:55.999Z,7.20
2018-04-09T15:04:22.635Z,4.60
2018-04-09T15:06:49.389Z,4.83
2018-04-09T15:09:16.034Z,6.23
2018-04-09T15:11:43.592Z,4.60
2018-04-09T15:14:10.325Z,10.03
2018-04-09T15:16:36.954Z,7.77
2018-04-09T15:19:03.673Z,6.13
2018-04-09T15:21:30.284Z,6.90
2018-04-09T15:23:56.878Z,14.83
2018-04-09T15:26:23.614Z,6.47
2018-04-09T15:28:50.253Z,13.73
2018-04-09T15:31:16.908Z,8.30
2018-04-09T15:33:43.632Z,5.53
2018-04-09T15:36:10.299Z,6.17
2018-04-09T15:38:36.890Z,5.80
2018-04-09T15:41:03.507Z,5.47
2018-04-09T15:43:31.135Z,5.20
2018-04-09T15:45:57.838Z,8.67
2018-04-09T15:48:26.352Z,4.60
2018-04-09T15:50:53.199Z,5.20
2018-04-09T15:53:19.798Z,4.73
2018-04-09T15:55:46.439Z,4.50
2018-04-09T15:58:13.023Z,5.20
2018-04-09T16:00:39.856Z,12.03
2018-04-09T16:03:06.534Z,7.70
2018-04-09T16:05:33.267Z,15.63
2018-04-09T16:07:59.963Z,7.20
2018-04-09T16:10:26.543Z,6.73
2018-04-09T16:12:53.193Z,7.70
2018-04-09T16:15:20.419Z,6.73
2018-04-09T16:17:53.216Z,13.90
2018-04-09T16:20:19.856Z,5.40
2018-04-09T16:22:47.513Z,10.20
2018-04-09T16:25:14.290Z,7.23
2018-04-09T16:27:41.024Z,5.47
2018-04-09T16:30:07.647Z,5.53
2018-04-09T16:32:34.325Z,6.03
2018-04-09T16:35:00.928Z,4.87
2018-04-09T16:37:27.582Z,9.63
2018-04-09T16:39:54.211Z,6.23
2018-04-09T16:42:21.692Z,7.47
2018-04-09T16:44:48.393Z,8.93
2018-04-09T16:47:15.040Z,5.80
2018-04-09T16:49:41.744Z,8.40
2018-04-09T16:52:08.359Z,5.10
2018-04-09T16:54:36.312Z,5.57
2018-04-09T16:57:03.973Z,6.93
2018-04-09T16:59:30.630Z,6.00
2018-04-09T17:01:57.654Z,7.23
2018-04-09T17:04:24.409Z,7.50
2018-04-09T17:06:51.052Z,6.47
2018-04-09T17:09:17.695Z,6.17
2018-04-09T17:11:44.346Z,8.13
2018-04-09T17:14:11.007Z,7.77
2018-04-09T17:16:37.785Z,13.13
2018-04-09T17:19:04.390Z,6.60
2018-04-09T17:21:31.096Z,7.70
2018-04-09T17:23:57.955Z,8.20
2018-04-09T17:26:24.557Z,12.13
2018-04-09T17:28:51.688Z,8.10
2018-04-09T17:31:18.756Z,7.90
2018-04-09T17:33:45.415Z,13.33
2018-04-09T17:36:12.185Z,10.57
2018-04-09T17:38:38.919Z,9.87
2018-04-09T17:41:05.533Z,15.57
2018-04-09T17:43:32.144Z,16.00
2018-04-09T17:45:58.777Z,11.03
2018-04-09T17:48:25.407Z,10.83
2018-04-09T17:50:52.061Z,21.70
2018-04-09T17:53:18.813Z,27.90
2018-04-09T17:55:45.643Z,14.27
2018-04-09T17:58:12.349Z,14.60
2018-04-09T18:00:38.954Z,27.97
2018-04-09T18:03:05.622Z,28.03
2018-04-09T18:05:32.290Z,18.20
2018-04-09T18:07:59.031Z,19.63
2018-04-09T18:10:25.638Z,21.53
2018-04-09T18:12:52.258Z,15.00
2018-04-09T18:15:18.856Z,13.80
2018-04-09T18:17:45.504Z,16.17
2018-04-09T18:20:12.187Z,22.93
2018-04-09T18:22:38.889Z,22.73
2018-04-09T18:25:05.526Z,22.23
2018-04-09T18:27:32.255Z,12.20
2018-04-09T18:29:59.037Z,26.03
2018-04-09T18:32:26.023Z,27.33
2018-04-09T18:34:52.710Z,20.58
2018-04-09T18:37:19.440Z,25.10
2018-04-09T18:39:46.131Z,26.83
2018-04-09T18:42:13.648Z,23.60
2018-04-09T18:44:40.542Z,20.93
2018-04-09T18:47:07.562Z,27.03
2018-04-09T18:49:34.454Z,25.63
2018-04-09T18:52:01.117Z,30.90
2018-04-09T18:54:28.112Z,26.60
2018-04-09T18:56:54.757Z,31.43
2018-04-09T18:59:21.418Z,26.70
2018-04-09T19:01:48.250Z,27.13
2018-04-09T19:04:15.308Z,48.23
2018-04-09T19:06:42.209Z,30.43
2018-04-09T19:09:08.891Z,25.30
2018-04-09T19:11:35.556Z,38.63
2018-04-09T20:35:59.558Z,21.73
2018-04-09T20:38:26.496Z,14.10
2018-04-09T20:40:53.397Z,17.40
2018-04-09T20:43:20.221Z,14.53
2018-04-09T20:45:47.197Z,14.90
2018-04-09T20:48:14.125Z,11.27
2018-04-09T20:50:41.490Z,16.57
2018-04-09T20:53:08.744Z,15.30
2018-04-09T20:55:35.426Z,17.53
2018-04-09T20:58:02.144Z,28.40
2018-04-09T21:00:28.785Z,11.03
2018-04-09T21:02:55.598Z,18.23
2018-04-09T21:05:22.225Z,10.77
2018-04-09T21:07:48.815Z,18.60
2018-04-09T21:10:15.476Z,10.63
2018-04-09T21:12:42.257Z,14.80
2018-04-09T21:15:08.951Z,13.80
2018-04-09T21:17:35.658Z,13.43
2018-04-09T21:20:02.335Z,11.50
2018-04-09T21:22:28.954Z,20.30
2018-04-09T21:24:55.623Z,12.43
2018-04-09T21:27:22.232Z,15.40
2018-04-09T21:29:48.849Z,8.10
2018-04-09T21:32:16.390Z,21.37
2018-04-09T21:34:43.042Z,17.77
2018-04-09T21:37:09.709Z,20.10
2018-04-09T21:39:36.410Z,32.93
2018-04-09T21:42:03.204Z,14.00
2018-04-09T21:44:29.813Z,15.87
2018-04-09T21:46:56.427Z,10.50
2018-04-09T21:49:23.022Z,9.00
2018-04-09T21:51:49.692Z,11.43
2018-04-09T21:54:16.377Z,19.50
2018-04-09T21:56:43.010Z,10.63
2018-04-09T21:59:09.637Z,12.17
2018-04-09T22:01:36.253Z,9.93
2018-04-09T22:04:03.017Z,9.47
2018-04-09T22:06:29.677Z,17.70
2018-04-09T22:08:56.339Z,23.90
2018-04-09T22:11:22.935Z,9.57
2018-04-09T22:13:49.620Z,16.73
2018-04-09T22:16:16.538Z,18.77
2018-04-09T22:18:43.175Z,20.00
2018-04-09T22:21:09.806Z,15.90
2018-04-09T22:23:36.692Z,10.40
2018-04-09T22:26:03.350Z,9.17
2018-04-09T22:28:29.967Z,11.13
2018-04-09T22:30:56.609Z,22.73
2018-04-09T22:33:23.242Z,16.17
2018-04-09T22:35:49.843Z,12.30
2018-04-09T22:38:16.434Z,19.13
2018-04-09T22:40:43.044Z,12.83
2018-04-09T22:43:09.645Z,17.83
2018-04-09T22:45:36.355Z,24.77
2018-04-09T22:48:03.062Z,14.50
2018-04-09T22:50:29.780Z,14.40
2018-04-09T22:52:56.573Z,14.07
2018-04-09T22:55:23.981Z,12.40
2018-04-09T22:57:50.649Z,16.27
2018-04-09T23:00:17.246Z,15.93
2018-04-09T23:02:43.854Z,13.27
2018-04-09T23:05:10.456Z,15.67
2018-04-09T23:07:37.151Z,11.70
2018-04-09T23:10:03.999Z,13.33
2018-04-09T23:12:30.618Z,12.43
2018-04-09T23:14:57.299Z,14.23
2018-04-09T23:17:23.963Z,15.90
2018-04-09T23:19:50.593Z,14.53
2018-04-09T23:22:23.203Z,13.80
2018-04-09T23:24:49.822Z,20.70
2018-04-09T23:27:16.449Z,13.00
2018-04-09T23:29:43.079Z,18.20
2018-04-09T23:32:09.676Z,14.70
2018-04-09T23:34:36.282Z,16.40
2018-04-09T23:37:02.986Z,14.77
2018-04-09T23:39:29.624Z,17.60
2018-04-09T23:41:56.595Z,15.83
2018-04-09T23:44:23.455Z,15.73
2018-04-09T23:46:50.067Z,14.67
2018-04-09T23:49:16.662Z,18.30
2018-04-09T23:51:43.285Z,14.30
2018-04-09T23:54:10.185Z,17.20
2018-04-09T23:56:37.061Z,13.37
2018-04-09T23:59:03.667Z,19.17
